Time;durP1;ratioP1;P1;durP2;ratioP2;P2;SDS_P1;SDS_P2;PMS_P1;PMS_P2;Temp;Humidity;BMP_temperature;BMP_pressure;BME280_temperature;BME280_humidity;BME280_pressure;Samples;Min_cycle;Max_cycle;Signal;HPM_P1;HPM_P2
2023/08/12 00:00:36;;;;;;;7.05;2.72;;;21.60;99.90;;;;;;5011458;28;20041;-72
2023/08/12 00:03:22;;;;;;;5.45;2.50;;;21.60;99.90;;;;;;4984366;28;20042;-72
2023/08/12 00:06:08;;;;;;;9.45;2.67;;;21.50;99.90;;;;;;4977959;28;20054;-72
2023/08/12 00:08:54;;;;;;;8.25;2.70;;;21.50;99.90;;;;;;4996102;28;20042;-72
2023/08/12 00:11:40;;;;;;;15.60;2.90;;;21.50;99.90;;;;;;4981032;28;20045;-72
2023/08/12 00:14:26;;;;;;;12.70;2.65;;;21.40;99.90;;;;;;4971670;28;20049;-73
2023/08/12 00:17:12;;;;;;;12.95;2.92;;;21.40;99.90;;;;;;4983740;28;20050;-73
2023/08/12 00:19:59;;;;;;;14.85;2.70;;;21.30;99.90;;;;;;4965799;28;20046;-72
2023/08/12 00:22:45;;;;;;;14.80;2.75;;;21.20;99.90;;;;;;4982406;28;20637;-73
2023/08/12 00:25:30;;;;;;;9.73;2.45;;;21.20;99.90;;;;;;4992675;28;20542;-72
2023/08/12 00:28:16;;;;;;;7.65;2.60;;;21.20;99.90;;;;;;4981063;28;20057;-73
2023/08/12 00:31:03;;;;;;;10.30;2.05;;;21.10;99.90;;;;;;4977228;28;20050;-73
2023/08/12 00:33:49;;;;;;;12.98;3.00;;;21.10;99.90;;;;;;4989512;28;20069;-73
2023/08/12 00:36:35;;;;;;;7.75;2.83;;;21.10;99.90;;;;;;4990246;28;20092;-73
2023/08/12 00:39:20;;;;;;;8.82;2.60;;;21.00;99.90;;;;;;4957403;28;20046;-73
2023/08/12 00:42:06;;;;;;;11.77;2.80;;;21.10;99.90;;;;;;4976049;28;20038;-73
2023/08/12 00:44:52;;;;;;;9.57;2.58;;;21.00;99.90;;;;;;4971147;28;20522;-73
2023/08/12 00:47:38;;;;;;;9.50;2.50;;;21.00;99.90;;;;;;4986311;28;20097;-73
2023/08/12 00:50:24;;;;;;;15.52;2.70;;;21.00;99.90;;;;;;4977863;28;20081;-71
2023/08/12 00:53:10;;;;;;;8.32;2.33;;;21.00;99.90;;;;;;4950806;28;20038;-73
2023/08/12 00:55:56;;;;;;;7.78;2.50;;;21.00;99.90;;;;;;4971760;28;20621;-73
2023/08/12 00:58:42;;;;;;;6.85;2.50;;;21.00;99.90;;;;;;4987097;28;20130;-73
2023/08/12 01:01:28;;;;;;;14.65;2.63;;;21.00;99.90;;;;;;4986441;28;20050;-73
2023/08/12 01:04:14;;;;;;;15.05;2.47;;;20.90;99.90;;;;;;4957355;28;20050;-71
2023/08/12 01:07:00;;;;;;;7.25;2.60;;;20.90;99.90;;;;;;4982226;28;20128;-72
2023/08/12 01:09:46;;;;;;;8.25;2.60;;;20.90;99.90;;;;;;4986843;28;20046;-72
2023/08/12 01:12:36;;;;;;;7.38;2.55;;;20.90;99.90;;;;;;4967713;28;20050;-72
2023/08/12 01:15:23;;;;;;;10.05;2.30;;;20.90;99.90;;;;;;4975420;28;20061;-72
2023/08/12 01:18:09;;;;;;;11.13;2.50;;;20.90;99.90;;;;;;4972802;28;20117;-72
2023/08/12 01:20:55;;;;;;;7.68;2.65;;;20.90;99.90;;;;;;4971841;28;20378;-72
2023/08/12 01:23:42;;;;;;;18.00;2.92;;;20.90;99.90;;;;;;4974348;28;20049;-72
2023/08/12 01:26:28;;;;;;;6.40;2.78;;;20.90;99.90;;;;;;4970562;28;20038;-72
2023/08/12 01:29:14;;;;;;;13.55;2.50;;;20.90;99.90;;;;;;4974274;28;20707;-72
2023/08/12 01:32:25;;;;;;;9.55;2.30;;;20.90;99.90;;;;;;4975926;28;20479;-72
2023/08/12 01:35:19;;;;;;;8.00;2.88;;;20.90;99.90;;;;;;4970859;28;20061;-72
2023/08/12 01:38:06;;;;;;;10.35;2.33;;;20.90;99.90;;;;;;4977718;28;20053;-72
2023/08/12 01:40:52;;;;;;;6.93;2.58;;;20.90;99.90;;;;;;4958311;28;20169;-73
2023/08/12 01:43:39;;;;;;;8.80;2.72;;;20.90;99.90;;;;;;4962741;28;20046;-71
2023/08/12 01:46:25;;;;;;;9.15;3.10;;;20.80;99.90;;;;;;4977764;28;20038;-72
2023/08/12 01:49:12;;;;;;;14.07;2.97;;;20.90;99.90;;;;;;4962839;28;20054;-72
2023/08/12 01:51:58;;;;;;;8.48;2.60;;;20.80;99.90;;;;;;4991264;28;20038;-72
2023/08/12 01:54:44;;;;;;;11.27;2.70;;;20.80;99.90;;;;;;4970499;28;20054;-73
2023/08/12 01:57:30;;;;;;;7.45;2.38;;;20.80;99.90;;;;;;4981748;28;20539;-73
2023/08/12 02:00:16;;;;;;;5.40;2.50;;;20.80;99.90;;;;;;4990564;28;20042;-73
2023/08/12 02:03:02;;;;;;;10.00;2.88;;;20.80;99.90;;;;;;4964448;28;20038;-73
2023/08/12 02:05:48;;;;;;;7.43;2.92;;;20.80;99.90;;;;;;4951948;28;20379;-73
2023/08/12 02:08:34;;;;;;;7.90;2.65;;;20.80;99.90;;;;;;4987666;28;20042;-73
2023/08/12 02:11:21;;;;;;;8.80;2.60;;;20.70;99.90;;;;;;4976109;28;20082;-73
2023/08/12 02:14:10;;;;;;;7.88;3.00;;;20.70;99.90;;;;;;4982382;28;20707;-73
2023/08/12 02:16:56;;;;;;;7.30;2.40;;;20.70;99.90;;;;;;4975167;28;20046;-73
2023/08/12 02:19:42;;;;;;;6.65;2.38;;;20.70;99.90;;;;;;4982357;28;20364;-73
2023/08/12 02:22:29;;;;;;;7.70;2.70;;;20.70;99.90;;;;;;4990059;28;20074;-73
2023/08/12 02:25:15;;;;;;;7.05;2.58;;;20.70;99.90;;;;;;4968976;28;20499;-73
2023/08/12 02:28:01;;;;;;;8.73;2.60;;;20.60;99.90;;;;;;4986191;28;20046;-73
2023/08/12 02:30:47;;;;;;;9.60;3.50;;;20.60;99.90;;;;;;4980930;28;20049;-73
2023/08/12 02:33:33;;;;;;;7.82;2.60;;;20.60;99.90;;;;;;4964137;28;20410;-73
2023/08/12 02:36:19;;;;;;;11.05;2.83;;;20.60;99.90;;;;;;5011395;28;20037;-73
2023/08/12 02:39:05;;;;;;;7.40;2.53;;;20.60;99.90;;;;;;5014379;28;20119;-73
2023/08/12 02:41:51;;;;;;;9.07;2.90;;;20.50;99.90;;;;;;4987412;28;20049;-72
2023/08/12 02:44:37;;;;;;;11.60;2.75;;;20.60;99.90;;;;;;4999006;28;20045;-71
2023/08/12 02:47:23;;;;;;;6.03;2.75;;;20.50;99.90;;;;;;4999103;28;20096;-71
2023/08/12 02:50:09;;;;;;;7.35;2.75;;;20.50;99.90;;;;;;4971644;28;20045;-71
2023/08/12 02:52:55;;;;;;;9.38;2.63;;;20.50;99.90;;;;;;4980750;28;20049;-72
2023/08/12 02:55:41;;;;;;;6.53;2.40;;;20.50;99.90;;;;;;4980408;28;20038;-73
2023/08/12 02:58:28;;;;;;;10.50;2.70;;;20.50;99.90;;;;;;4965277;28;20049;-73
2023/08/12 03:01:14;;;;;;;7.80;2.70;;;20.50;99.90;;;;;;4968115;28;20046;-73
2023/08/12 03:04:00;;;;;;;10.15;2.40;;;20.40;99.90;;;;;;4985207;28;20041;-73
2023/08/12 03:06:47;;;;;;;12.57;3.45;;;20.40;99.90;;;;;;4984308;28;20124;-73
2023/08/12 03:09:33;;;;;;;7.55;2.60;;;20.40;99.90;;;;;;4983583;28;20038;-73
2023/08/12 03:12:19;;;;;;;6.40;2.58;;;20.40;99.90;;;;;;5004634;28;20056;-71
2023/08/12 03:15:09;;;;;;;10.50;2.95;;;20.40;99.90;;;;;;4994649;28;20041;-72
2023/08/12 03:17:56;;;;;;;7.50;2.80;;;20.40;99.90;;;;;;4996773;28;20069;-72
2023/08/12 03:20:42;;;;;;;5.63;2.50;;;20.40;99.90;;;;;;4985214;28;20042;-72
2023/08/12 03:23:28;;;;;;;8.90;2.72;;;20.30;99.90;;;;;;4986898;28;20125;-71
2023/08/12 03:26:14;;;;;;;6.43;2.72;;;20.30;99.90;;;;;;5004429;28;20486;-71
2023/08/12 03:29:00;;;;;;;12.85;3.00;;;20.30;99.90;;;;;;4993821;28;20042;-72
2023/08/12 03:31:46;;;;;;;6.72;2.53;;;20.30;99.90;;;;;;4993760;28;20524;-71
2023/08/12 03:34:32;;;;;;;5.53;3.00;;;20.40;99.90;;;;;;4965832;28;20068;-72
2023/08/12 03:37:18;;;;;;;9.93;3.13;;;20.40;99.90;;;;;;4992941;28;20133;-72
2023/08/12 03:40:05;;;;;;;9.30;2.67;;;20.30;99.90;;;;;;4970280;28;20046;-73
2023/08/12 03:42:51;;;;;;;7.43;2.47;;;20.40;99.90;;;;;;4964630;28;20053;-72
2023/08/12 03:45:43;;;;;;;9.68;3.45;;;20.40;99.90;;;;;;4952920;28;20042;-71
2023/08/12 03:48:29;;;;;;;5.18;2.97;;;20.40;99.90;;;;;;4963087;28;20367;-72
2023/08/12 03:51:15;;;;;;;6.82;2.63;;;20.30;99.90;;;;;;4966411;28;20050;-71
2023/08/12 03:54:01;;;;;;;5.60;2.63;;;20.30;99.90;;;;;;4965081;28;20467;-74
2023/08/12 03:56:47;;;;;;;9.55;2.70;;;20.30;99.90;;;;;;4979760;28;20070;-71
2023/08/12 03:59:33;;;;;;;6.05;3.05;;;20.40;99.90;;;;;;4964679;28;20112;-73
2023/08/12 04:02:19;;;;;;;6.30;2.47;;;20.40;99.90;;;;;;4965701;28;20046;-73
2023/08/12 04:05:05;;;;;;;6.53;2.60;;;20.40;99.90;;;;;;4968187;28;20042;-71
2023/08/12 04:07:51;;;;;;;9.75;2.78;;;20.40;99.90;;;;;;4952599;28;20049;-71
2023/08/12 04:10:37;;;;;;;9.93;2.58;;;20.40;99.90;;;;;;4978341;28;20124;-71
2023/08/12 04:13:23;;;;;;;8.07;2.67;;;20.40;99.90;;;;;;4956345;28;20043;-71
2023/08/12 04:16:09;;;;;;;4.65;2.60;;;20.40;99.90;;;;;;4967165;28;20031;-73
2023/08/12 04:18:55;;;;;;;8.50;2.70;;;20.40;99.90;;;;;;4966825;28;20363;-71
2023/08/12 04:21:45;;;;;;;4.22;2.58;;;20.40;99.90;;;;;;4974169;28;20161;-73
2023/08/12 04:24:32;;;;;;;4.93;2.28;;;20.30;99.90;;;;;;4964775;28;20031;-73
2023/08/12 04:27:19;;;;;;;4.65;2.50;;;20.30;99.90;;;;;;4972071;28;20480;-72
2023/08/12 04:30:06;;;;;;;5.70;2.50;;;20.30;99.90;;;;;;4975671;28;20046;-72
2023/08/12 04:32:52;;;;;;;10.35;2.78;;;20.30;99.90;;;;;;4982926;28;20059;-73
2023/08/12 04:35:38;;;;;;;5.20;2.50;;;20.30;99.90;;;;;;4983373;28;20064;-72
2023/08/12 04:38:25;;;;;;;8.50;2.95;;;20.30;99.90;;;;;;4982881;28;20038;-72
2023/08/12 04:41:11;;;;;;;8.00;2.70;;;20.20;99.90;;;;;;4961443;28;20046;-72
2023/08/12 04:43:57;;;;;;;11.35;3.67;;;20.30;99.90;;;;;;4990662;28;20073;-73
2023/08/12 04:46:43;;;;;;;5.70;2.75;;;20.30;99.90;;;;;;4990469;28;20046;-72
2023/08/12 04:49:30;;;;;;;6.82;2.90;;;20.40;99.90;;;;;;4995951;28;20056;-72
2023/08/12 04:52:16;;;;;;;9.82;2.58;;;20.40;99.90;;;;;;4982060;28;20480;-72
2023/08/12 04:55:04;;;;;;;10.25;3.13;;;20.40;99.90;;;;;;4993852;28;20145;-72
2023/08/12 04:57:50;;;;;;;6.88;2.90;;;20.40;99.90;;;;;;4982977;28;20100;-72
2023/08/12 05:00:36;;;;;;;6.00;2.80;;;20.40;99.90;;;;;;4997885;28;20064;-72
2023/08/12 05:03:22;;;;;;;8.48;3.00;;;20.40;99.90;;;;;;4991873;28;20355;-72
2023/08/12 05:06:08;;;;;;;11.32;2.97;;;20.50;99.90;;;;;;4978069;28;20046;-72
2023/08/12 05:08:54;;;;;;;7.97;2.72;;;20.40;99.90;;;;;;4996933;28;20049;-71
2023/08/12 05:11:40;;;;;;;8.57;2.67;;;20.40;99.90;;;;;;4994816;28;20046;-71
2023/08/12 05:14:26;;;;;;;6.90;2.75;;;20.50;99.90;;;;;;4982571;28;20038;-72
2023/08/12 05:17:12;;;;;;;13.75;3.45;;;20.50;99.90;;;;;;4983910;28;20398;-72
2023/08/12 05:19:58;;;;;;;8.27;3.22;;;20.50;99.90;;;;;;4983490;28;20124;-72
2023/08/12 05:22:44;;;;;;;9.15;3.25;;;20.40;99.90;;;;;;4990940;28;20042;-73
2023/08/12 05:25:30;;;;;;;6.53;2.90;;;20.40;99.90;;;;;;4970612;28;20476;-73
2023/08/12 05:28:16;;;;;;;5.50;2.80;;;20.40;99.90;;;;;;4977592;28;20046;-72
2023/08/12 05:31:01;;;;;;;8.38;3.72;;;20.40;99.90;;;;;;4993978;28;20097;-71
2023/08/12 05:33:47;;;;;;;11.00;3.38;;;20.40;99.90;;;;;;4982690;28;20050;-71
2023/08/12 05:36:33;;;;;;;9.85;4.43;;;20.30;99.90;;;;;;4953722;28;20058;-72
2023/08/12 05:39:19;;;;;;;7.97;3.35;;;20.30;99.90;;;;;;4982370;28;20041;-72
2023/08/12 05:42:06;;;;;;;8.65;3.03;;;20.30;99.90;;;;;;4979780;28;20642;-74
2023/08/12 05:44:53;;;;;;;8.23;3.67;;;20.30;99.90;;;;;;5008577;28;20038;-72
2023/08/12 05:47:39;;;;;;;10.18;3.88;;;20.30;99.90;;;;;;4991679;28;20038;-72
2023/08/12 05:50:25;;;;;;;8.45;3.55;;;20.20;99.90;;;;;;4990205;28;20045;-72
2023/08/12 05:53:11;;;;;;;9.52;3.55;;;20.20;99.90;;;;;;4969692;28;20116;-72
2023/08/12 05:55:58;;;;;;;10.43;3.22;;;20.20;99.90;;;;;;4981871;28;20045;-72
2023/08/12 05:58:44;;;;;;;6.18;3.25;;;20.20;99.90;;;;;;4994313;28;20049;-72
2023/08/12 06:01:29;;;;;;;8.43;3.67;;;20.20;99.90;;;;;;4994799;28;20046;-72
2023/08/12 06:04:15;;;;;;;12.05;3.50;;;20.20;99.90;;;;;;4978025;28;20053;-73
2023/08/12 06:07:02;;;;;;;6.20;3.65;;;20.20;99.90;;;;;;4978362;28;20418;-73
2023/08/12 06:09:48;;;;;;;11.23;3.88;;;20.20;99.90;;;;;;4977144;28;20128;-73
2023/08/12 06:12:33;;;;;;;12.52;3.20;;;20.20;99.90;;;;;;4978788;28;20100;-73
2023/08/12 06:15:19;;;;;;;8.13;4.25;;;20.20;99.90;;;;;;4973757;28;20080;-71
2023/08/12 06:18:05;;;;;;;13.43;4.18;;;20.20;99.90;;;;;;4986134;28;20423;-71
2023/08/12 06:20:51;;;;;;;10.25;3.45;;;20.30;99.90;;;;;;4987382;28;20072;-71
2023/08/12 06:23:37;;;;;;;8.02;3.80;;;20.30;99.90;;;;;;4993521;28;20042;-71
2023/08/12 06:26:23;;;;;;;10.27;3.97;;;20.40;99.90;;;;;;4986555;28;20049;-71
2023/08/12 06:29:10;;;;;;;8.48;3.97;;;20.40;99.90;;;;;;4999541;28;20129;-71
2023/08/12 06:31:57;;;;;;;6.88;3.92;;;20.50;99.90;;;;;;4984071;28;20038;-71
2023/08/12 06:34:42;;;;;;;8.40;3.40;;;20.50;99.90;;;;;;4964824;28;20046;-71
2023/08/12 06:37:28;;;;;;;6.88;3.50;;;20.60;99.90;;;;;;4973706;28;20083;-72
2023/08/12 06:40:14;;;;;;;7.53;4.03;;;20.60;99.90;;;;;;4956795;28;20513;-72
2023/08/12 06:43:01;;;;;;;8.68;3.88;;;20.60;99.90;;;;;;4994349;28;20046;-72
2023/08/12 06:45:46;;;;;;;10.30;3.95;;;20.70;99.90;;;;;;4968164;28;20479;-72
2023/08/12 06:48:32;;;;;;;8.57;4.30;;;20.60;99.90;;;;;;4965846;28;20042;-72
2023/08/12 06:51:18;;;;;;;8.30;4.13;;;20.70;99.90;;;;;;4980609;28;20153;-72
2023/08/12 06:54:04;;;;;;;11.02;3.72;;;20.50;99.90;;;;;;4965645;28;20046;-72
2023/08/12 06:56:50;;;;;;;6.35;3.72;;;20.60;99.90;;;;;;4970883;28;20038;-72
2023/08/12 06:59:37;;;;;;;10.18;4.10;;;20.70;99.90;;;;;;4965501;28;20044;-72
2023/08/12 07:02:23;;;;;;;7.80;3.95;;;20.70;99.90;;;;;;4955503;28;20050;-72
2023/08/12 07:05:09;;;;;;;9.32;4.00;;;20.70;99.90;;;;;;4979728;28;20042;-72
2023/08/12 07:07:55;;;;;;;8.35;3.85;;;20.70;99.90;;;;;;4963700;28;20212;-71
2023/08/12 07:10:41;;;;;;;5.90;3.60;;;20.70;99.90;;;;;;4955890;28;20057;-72
2023/08/12 07:13:28;;;;;;;7.38;3.38;;;20.80;99.90;;;;;;4966901;28;20070;-72
2023/08/12 07:16:14;;;;;;;9.25;3.85;;;20.70;99.90;;;;;;4990954;28;20764;-72
2023/08/12 07:19:00;;;;;;;8.40;3.60;;;20.80;99.90;;;;;;4973229;28;20038;-72
2023/08/12 07:21:46;;;;;;;6.72;3.53;;;20.80;99.90;;;;;;4952810;28;20471;-72
2023/08/12 07:24:32;;;;;;;5.43;3.53;;;20.80;99.90;;;;;;4979671;28;20046;-71
2023/08/12 07:27:18;;;;;;;7.70;3.47;;;20.90;99.90;;;;;;4978372;28;20533;-71
2023/08/12 07:30:04;;;;;;;5.70;3.38;;;20.90;99.90;;;;;;4950473;28;20062;-71
2023/08/12 07:32:50;;;;;;;7.97;3.95;;;20.90;99.90;;;;;;4983512;28;20058;-71
2023/08/12 07:35:36;;;;;;;8.32;4.05;;;20.90;99.90;;;;;;4979214;28;20041;-71
2023/08/12 07:38:22;;;;;;;6.70;3.38;;;20.90;99.90;;;;;;5000928;28;20764;-71
2023/08/12 07:41:08;;;;;;;6.85;3.03;;;20.90;99.90;;;;;;4972966;28;20042;-71
2023/08/12 07:43:54;;;;;;;9.73;3.67;;;20.90;99.90;;;;;;4986348;28;20065;-74
2023/08/12 07:46:40;;;;;;;7.72;3.70;;;20.90;99.90;;;;;;4987143;28;20382;-75
2023/08/12 07:49:26;;;;;;;8.90;3.90;;;20.90;99.90;;;;;;4992766;28;20116;-74
2023/08/12 07:52:12;;;;;;;6.80;3.80;;;20.90;99.90;;;;;;5002471;28;20037;-74
2023/08/12 07:54:58;;;;;;;9.50;3.50;;;20.90;99.90;;;;;;4953801;28;20042;-74
2023/08/12 07:57:45;;;;;;;7.40;3.72;;;20.90;99.90;;;;;;4990627;28;20048;-74
2023/08/12 08:00:32;;;;;;;5.15;3.55;;;20.90;99.90;;;;;;4987344;28;20113;-74
2023/08/12 08:03:18;;;;;;;7.63;4.00;;;20.90;99.90;;;;;;4998395;28;20048;-75
2023/08/12 08:06:04;;;;;;;7.53;3.40;;;20.90;99.90;;;;;;4981937;28;20820;-74
2023/08/12 08:08:50;;;;;;;7.95;3.85;;;20.90;99.90;;;;;;5029568;28;20383;-74
2023/08/12 08:11:36;;;;;;;7.30;3.63;;;20.90;99.90;;;;;;4986421;28;20046;-74
2023/08/12 08:14:22;;;;;;;8.25;3.58;;;21.00;99.90;;;;;;4985312;28;20667;-74
2023/08/12 08:17:08;;;;;;;5.43;3.17;;;21.00;99.90;;;;;;4988576;28;20070;-73
2023/08/12 08:19:54;;;;;;;11.27;3.90;;;21.00;99.90;;;;;;4980322;28;20050;-74
2023/08/12 08:22:40;;;;;;;5.45;3.10;;;20.90;99.90;;;;;;4965430;28;20042;-76
2023/08/12 08:25:26;;;;;;;5.85;3.83;;;21.00;99.90;;;;;;4979407;28;20073;-73
2023/08/12 08:28:12;;;;;;;7.85;3.60;;;21.00;99.90;;;;;;4996297;28;20152;-74
2023/08/12 08:30:58;;;;;;;7.85;3.22;;;21.00;99.90;;;;;;4994719;28;20042;-74
2023/08/12 08:33:44;;;;;;;5.18;3.70;;;21.10;99.90;;;;;;4979729;28;20133;-74
2023/08/12 08:36:30;;;;;;;10.48;3.40;;;21.10;99.90;;;;;;4985028;28;20125;-74
2023/08/12 08:39:16;;;;;;;7.97;3.67;;;21.20;99.90;;;;;;4997939;28;20037;-74
2023/08/12 08:42:03;;;;;;;6.90;3.80;;;21.20;99.90;;;;;;4984524;28;20038;-73
2023/08/12 08:44:50;;;;;;;6.25;3.70;;;21.20;99.90;;;;;;4970638;28;20041;-74
2023/08/12 08:47:36;;;;;;;8.35;3.65;;;21.30;99.90;;;;;;4990166;28;20513;-73
2023/08/12 08:50:22;;;;;;;5.55;3.63;;;21.30;99.90;;;;;;4979392;28;20054;-73
2023/08/12 08:53:08;;;;;;;9.52;3.67;;;21.30;99.90;;;;;;4965861;28;20034;-74
2023/08/12 08:55:54;;;;;;;6.20;3.20;;;21.30;99.90;;;;;;4978640;28;20509;-74
2023/08/12 08:58:40;;;;;;;7.75;3.72;;;21.40;99.90;;;;;;4971932;28;20156;-73
2023/08/12 09:01:26;;;;;;;6.45;3.80;;;21.40;99.90;;;;;;4999242;28;20381;-74
2023/08/12 09:04:13;;;;;;;8.32;4.35;;;21.40;99.90;;;;;;4973838;28;20077;-74
2023/08/12 09:06:59;;;;;;;10.10;4.30;;;21.40;99.90;;;;;;4972605;28;20042;-75
2023/08/12 09:09:48;;;;;;;8.10;3.92;;;21.40;99.90;;;;;;4972078;28;20862;-74
2023/08/12 09:12:34;;;;;;;8.98;4.28;;;21.40;99.90;;;;;;4971590;28;20042;-74
2023/08/12 09:15:20;;;;;;;8.25;4.50;;;21.40;99.90;;;;;;4997264;28;20470;-74
2023/08/12 09:18:07;;;;;;;9.20;4.65;;;21.40;99.90;;;;;;4984000;28;20049;-74
2023/08/12 09:20:56;;;;;;;8.23;4.80;;;21.40;99.90;;;;;;4998704;28;20498;-75
2023/08/12 09:23:42;;;;;;;7.50;3.92;;;21.40;99.90;;;;;;4993477;28;20046;-74
2023/08/12 09:26:28;;;;;;;7.10;3.90;;;21.40;99.90;;;;;;4984570;28;20037;-74
2023/08/12 09:29:14;;;;;;;5.88;3.80;;;21.40;99.90;;;;;;4983852;28;20188;-74
2023/08/12 09:32:13;;;;;;;9.30;4.10;;;21.40;99.90;;;;;;4970772;28;20063;-74
2023/08/12 09:35:05;;;;;;;9.45;4.22;;;21.40;99.90;;;;;;4980995;28;20534;-74
2023/08/12 09:37:52;;;;;;;10.07;4.43;;;21.40;99.90;;;;;;4994178;28;20030;-74
2023/08/12 09:40:38;;;;;;;5.63;3.78;;;21.40;99.90;;;;;;4977931;28;20053;-74
2023/08/12 09:43:24;;;;;;;6.90;4.25;;;21.40;99.90;;;;;;4977448;28;20046;-75
2023/08/12 09:46:14;;;;;;;11.98;4.65;;;21.40;99.90;;;;;;4983747;28;20111;-74
2023/08/12 09:49:00;;;;;;;8.25;4.43;;;21.40;99.90;;;;;;4983757;28;20061;-74
2023/08/12 09:51:46;;;;;;;9.73;4.47;;;21.40;99.90;;;;;;4990772;28;20106;-73
2023/08/12 09:54:32;;;;;;;7.88;5.22;;;21.40;99.90;;;;;;4984160;28;20088;-74
2023/08/12 09:57:18;;;;;;;15.32;5.65;;;21.40;99.90;;;;;;4996791;28;20453;-74
2023/08/12 10:00:11;;;;;;;9.57;4.90;;;21.50;99.90;;;;;;4970822;28;20065;-74
2023/08/12 10:02:57;;;;;;;9.57;4.70;;;21.40;99.90;;;;;;4984748;28;20038;-74
2023/08/12 10:05:43;;;;;;;8.10;4.60;;;21.50;99.90;;;;;;4976367;28;20641;-74
2023/08/12 10:08:29;;;;;;;7.13;3.90;;;21.50;99.90;;;;;;4993782;28;20140;-74
2023/08/12 10:11:15;;;;;;;8.25;3.63;;;21.50;99.90;;;;;;4952634;28;20133;-74
2023/08/12 10:14:02;;;;;;;8.43;3.90;;;21.50;99.90;;;;;;4970633;28;20746;-74
2023/08/12 10:16:48;;;;;;;11.48;3.97;;;21.60;99.90;;;;;;4958135;28;20108;-74
2023/08/12 10:19:34;;;;;;;6.57;3.50;;;21.60;99.90;;;;;;4984213;28;20037;-74
2023/08/12 10:22:20;;;;;;;8.82;4.13;;;21.70;99.90;;;;;;4985079;28;20053;-74
2023/08/12 10:25:08;;;;;;;7.97;3.60;;;21.80;99.90;;;;;;4970947;28;20821;-74
2023/08/12 10:27:54;;;;;;;6.43;2.95;;;21.90;99.90;;;;;;4990917;28;20061;-74
2023/08/12 10:30:41;;;;;;;5.55;3.15;;;22.00;99.90;;;;;;4994130;28;20478;-74
2023/08/12 10:33:27;;;;;;;6.45;3.50;;;22.00;99.90;;;;;;4981827;28;20058;-74
2023/08/12 10:36:13;;;;;;;4.80;3.00;;;22.10;99.90;;;;;;4967734;28;20038;-74
2023/08/12 10:39:00;;;;;;;6.40;3.20;;;22.30;99.90;;;;;;4984020;28;20037;-74
2023/08/12 10:41:54;;;;;;;9.05;2.85;;;22.30;99.90;;;;;;4991820;28;20362;-74
2023/08/12 10:44:51;;;;;;;6.78;3.75;;;22.50;99.90;;;;;;4979602;28;20052;-74
2023/08/12 10:47:57;;;;;;;3.95;3.10;;;23.00;99.90;;;;;;4965799;28;20913;-74
2023/08/12 10:50:45;;;;;;;4.85;3.17;;;23.20;99.90;;;;;;5012341;28;20041;-74
2023/08/12 10:53:35;;;;;;;5.07;2.72;;;23.40;99.90;;;;;;4985885;28;20034;-74
2023/08/12 10:56:21;;;;;;;4.05;2.92;;;23.60;99.90;;;;;;4997667;28;20041;-74
2023/08/12 10:59:07;;;;;;;4.65;3.10;;;23.50;99.90;;;;;;4989568;28;20510;-74
2023/08/12 11:02:04;;;;;;;4.90;3.45;;;23.40;99.90;;;;;;4990566;28;20049;-74
2023/08/12 11:04:58;;;;;;;3.70;2.80;;;23.30;99.90;;;;;;5006571;28;20033;-74
2023/08/12 11:08:03;;;;;;;4.57;2.58;;;23.20;99.90;;;;;;5015340;28;20149;-74
2023/08/12 11:10:50;;;;;;;5.38;2.90;;;23.30;99.90;;;;;;5011014;28;20097;-74
2023/08/12 11:13:57;;;;;;;5.53;2.97;;;23.30;99.90;;;;;;4973545;28;20382;-74
2023/08/12 11:16:43;;;;;;;5.90;2.72;;;23.30;99.90;;;;;;5006790;28;20640;-74
2023/08/12 11:19:29;;;;;;;6.63;3.10;;;23.30;99.90;;;;;;4985154;28;20132;-74
2023/08/12 11:22:15;;;;;;;4.97;2.80;;;23.40;99.90;;;;;;4978441;28;20542;-74
2023/08/12 11:25:02;;;;;;;5.43;3.17;;;23.40;99.90;;;;;;4966966;28;20064;-75
2023/08/12 11:27:48;;;;;;;6.38;3.08;;;23.60;99.90;;;;;;5000089;28;20049;-75
2023/08/12 11:30:34;;;;;;;5.20;2.70;;;23.80;99.90;;;;;;4998941;28;20067;-75
2023/08/12 11:33:20;;;;;;;4.50;2.80;;;24.00;99.90;;;;;;4987053;28;20063;-74
2023/08/12 11:36:07;;;;;;;6.78;2.97;;;24.30;99.90;;;;;;4994858;28;20044;-75
2023/08/12 11:38:53;;;;;;;4.55;2.70;;;24.50;99.90;;;;;;4984386;28;20399;-75
2023/08/12 11:41:39;;;;;;;6.40;3.38;;;24.60;99.90;;;;;;4976830;28;20124;-74
2023/08/12 11:44:25;;;;;;;6.20;3.35;;;24.90;99.90;;;;;;4985498;28;20471;-75
2023/08/12 11:47:11;;;;;;;5.35;3.20;;;24.90;99.90;;;;;;4960187;28;20042;-75
2023/08/12 11:49:57;;;;;;;5.47;3.42;;;25.00;99.90;;;;;;5001329;28;20046;-74
2023/08/12 11:52:43;;;;;;;4.82;3.33;;;24.90;99.90;;;;;;4985987;28;20042;-75
2023/08/12 11:55:29;;;;;;;5.65;3.22;;;25.00;99.90;;;;;;4976536;28;20050;-75
2023/08/12 11:58:20;;;;;;;5.15;2.97;;;25.00;99.90;;;;;;4982947;28;20034;-75
2023/08/12 12:01:06;;;;;;;6.63;3.47;;;25.00;99.90;;;;;;4956104;28;20046;-75
2023/08/12 12:03:52;;;;;;;6.47;3.20;;;25.10;99.90;;;;;;5002359;28;20042;-75
2023/08/12 12:06:38;;;;;;;5.93;3.53;;;25.20;99.90;;;;;;4971819;28;20128;-75
2023/08/12 12:09:26;;;;;;;7.53;3.50;;;25.40;99.90;;;;;;4989354;28;20554;-75
2023/08/12 12:12:12;;;;;;;5.88;3.58;;;25.50;99.90;;;;;;4993692;28;20049;-75
2023/08/12 12:14:58;;;;;;;4.82;3.40;;;25.60;99.90;;;;;;4995956;28;20381;-74
2023/08/12 12:17:50;;;;;;;5.70;2.90;;;25.80;99.90;;;;;;4996234;28;20486;-75
2023/08/12 12:20:36;;;;;;;4.03;2.70;;;25.80;99.90;;;;;;4995986;28;20382;-75
2023/08/12 12:23:26;;;;;;;3.85;2.78;;;26.20;99.90;;;;;;4987119;28;20344;-75
2023/08/12 12:26:12;;;;;;;5.57;3.03;;;26.20;99.90;;;;;;4995950;28;20045;-75
2023/08/12 12:28:58;;;;;;;3.92;2.80;;;26.30;99.90;;;;;;4985733;28;20135;-75
2023/08/12 12:31:43;;;;;;;3.47;2.50;;;26.30;99.90;;;;;;4979539;28;20065;-75
2023/08/12 12:34:30;;;;;;;5.07;3.20;;;26.10;99.90;;;;;;5002668;28;20050;-74
2023/08/12 12:37:16;;;;;;;5.78;2.70;;;26.00;99.90;;;;;;4975300;28;20443;-75
2023/08/12 12:40:05;;;;;;;5.53;2.78;;;26.20;99.90;;;;;;4992985;28;20058;-75
2023/08/12 12:42:52;;;;;;;3.65;2.80;;;26.00;99.90;;;;;;4999159;28;20033;-75
2023/08/12 12:45:38;;;;;;;4.13;2.80;;;25.80;99.90;;;;;;4997788;28;20749;-75
2023/08/12 12:48:24;;;;;;;5.53;2.90;;;25.80;99.90;;;;;;5000853;28;20048;-75
2023/08/12 12:51:10;;;;;;;5.28;2.80;;;25.80;99.90;;;;;;4976397;28;20060;-75
2023/08/12 12:53:56;;;;;;;4.28;3.00;;;25.90;99.90;;;;;;4956581;28;20072;-75
2023/08/12 12:56:42;;;;;;;6.25;3.33;;;26.20;99.90;;;;;;4979919;28;20153;-74
2023/08/12 12:59:28;;;;;;;6.95;2.95;;;26.40;99.90;;;;;;5005415;28;20120;-74
2023/08/12 13:02:14;;;;;;;6.90;3.17;;;26.60;99.90;;;;;;4958437;28;20055;-74
2023/08/12 13:05:00;;;;;;;6.85;2.60;;;26.70;99.90;;;;;;4999251;28;20097;-74
2023/08/12 13:07:46;;;;;;;5.82;3.15;;;26.70;99.90;;;;;;4997715;28;20089;-74
2023/08/12 13:10:32;;;;;;;5.40;3.47;;;26.80;99.90;;;;;;4975214;28;20057;-74
2023/08/12 13:13:20;;;;;;;4.78;2.30;;;26.60;99.90;;;;;;5002881;28;20121;-74
2023/08/12 13:16:07;;;;;;;3.72;2.55;;;26.50;99.90;;;;;;4982988;28;20065;-74
2023/08/12 13:18:54;;;;;;;6.35;2.67;;;26.20;99.90;;;;;;4973171;28;20033;-74
2023/08/12 13:21:40;;;;;;;4.18;2.42;;;26.30;99.90;;;;;;4997909;28;20092;-74
2023/08/12 13:24:26;;;;;;;3.38;2.30;;;26.20;99.90;;;;;;5000642;28;20458;-74
2023/08/12 13:27:13;;;;;;;3.83;2.10;;;26.10;99.90;;;;;;4983085;28;20046;-71
2023/08/12 13:29:59;;;;;;;5.30;2.63;;;26.10;99.90;;;;;;4983396;28;20050;-72
2023/08/12 13:32:45;;;;;;;3.65;1.83;;;26.00;99.90;;;;;;4983368;28;20419;-74
2023/08/12 13:35:31;;;;;;;4.80;2.17;;;25.90;99.90;;;;;;4992009;28;20044;-75
2023/08/12 13:38:17;;;;;;;3.67;1.80;;;25.90;99.90;;;;;;4998843;28;20041;-74
2023/08/12 13:41:03;;;;;;;4.70;2.58;;;26.00;99.90;;;;;;4994125;28;20049;-75
2023/08/12 13:43:49;;;;;;;3.10;2.17;;;26.20;99.90;;;;;;4984923;28;20042;-74
2023/08/12 13:46:35;;;;;;;3.05;2.03;;;26.30;99.90;;;;;;4985056;28;20056;-74
2023/08/12 13:49:22;;;;;;;3.42;2.08;;;26.50;99.90;;;;;;4997719;28;20035;-74
2023/08/12 13:52:08;;;;;;;3.25;1.77;;;26.50;99.90;;;;;;4968867;28;20038;-74
2023/08/12 13:54:54;;;;;;;2.90;1.85;;;26.30;99.90;;;;;;4983710;28;20497;-75
2023/08/12 13:57:40;;;;;;;4.07;1.98;;;26.20;99.90;;;;;;4970699;28;20065;-74
2023/08/12 14:00:26;;;;;;;6.50;1.70;;;26.20;99.90;;;;;;4969459;28;20088;-74
2023/08/12 14:03:13;;;;;;;2.90;1.50;;;26.10;99.90;;;;;;4995442;28;20065;-74
2023/08/12 14:05:59;;;;;;;3.03;1.90;;;26.00;99.90;;;;;;4978639;28;20443;-74
2023/08/12 14:08:45;;;;;;;3.97;1.70;;;25.90;99.90;;;;;;4970661;28;20160;-74
2023/08/12 14:11:31;;;;;;;3.33;1.48;;;25.50;99.90;;;;;;4972218;28;20076;-74
2023/08/12 14:14:17;;;;;;;2.47;1.38;;;25.10;99.90;;;;;;4983794;28;20030;-75
2023/08/12 14:17:03;;;;;;;3.58;1.60;;;24.90;99.90;;;;;;4968844;28;20038;-74
2023/08/12 14:19:50;;;;;;;2.13;1.20;;;24.70;99.90;;;;;;4978034;28;20050;-74
2023/08/12 14:22:36;;;;;;;2.90;0.95;;;24.70;99.90;;;;;;4965993;28;20770;-74
2023/08/12 14:25:22;;;;;;;2.75;1.30;;;24.60;99.90;;;;;;4976481;28;20111;-74